Friday, April 01, 2022

Cirrus SR22T, N718SB: Accident occurred March 30, 2022 at DeFuniak Springs Airport (54J), Walton County, Florida

Federal Aviation Administration / Flight Standards District Office; Alabama and NW Florida

Aircraft crashed on departure.  

SouthernBelle LLC


Date: 30-MAR-22
Time: 17:45:00Z
Regis#: N718SB
Aircraft Make: CIRRUS
Aircraft Model: SR22
Event Type: ACCIDENT
Highest Injury: NONE
Aircraft Missing: No
Damage: SUBSTANTIAL
Activity: PERSONAL
Flight Phase: TAKEOFF (TOF)
Operation: 91
City: DEFUNIAK SPRINGS
State: FLORIDA






Walton County Fire Rescue, Florida -

Walton County Fire Rescue EMS assisted City of DeFuniak Springs Fire Department this afternoon after heavy crosswinds caused a plane at DeFuniak Springs Airport to leave the runway. 

The pilot was attempting to takeoff at the time and a wind gust caused the Cirrus SR22T GTS G6 platinum to veer hard to the right off the runway. 

Fortunately, the pilot was not injured and fuel was not disrupted.

WCFR Paramedics treated the gentleman on scene and made sure he was okay.

1 comment:

  1. a local surface weather station @ 12:44 PM,79.9 °F, 67.5 °F, 66 %, South 6.3, mph, gust 11.1 mph, 29.92 in 0.00 in 0.00 in

    65 miles to the SW, ARCHIVED METAR OF: 20220330 // FROM: 12 TO: 13 UTC
    AIRPORTS REQUESTED: KPNS, Pensacola International Airport

    KPNS 301253Z 14012KT 10SM CLR 22/19 A2990 RMK AO2 SLP125 T02220194
    KPNS 301353Z 14012G19KT 10SM CLR 23/19 A2990 RMK AO2 SLP128 T02280189

    ReplyDelete

All messages must be civil in tone; if critical, must be constructive. This is a place where we learn what not to do next time. Personal attacks and hate speech directed at the NTSB investigators, FAA investigators, Designated Pilot Examiners, Kathryn, as well as other members of the aviation blog, are unacceptable because they are not constructive. Messages that harass, abuse or threaten other persons, such as threats to cause bodily harm, or that contain obscene or otherwise objectionable content, may result in the loss of your posting privileges.